Time;durP1;ratioP1;P1;durP2;ratioP2;P2;SDS_P1;SDS_P2;PMS_P1;PMS_P2;Temp;Humidity;BMP_temperature;BMP_pressure;BME280_temperature;BME280_humidity;BME280_pressure;Samples;Min_cycle;Max_cycle;Signal;HPM_P1;HPM_P2
2023/08/05 00:01:53;;;;;;;;;;;;;;;18.45;70.58;100948.59;4206503;28;19934;-69
2023/08/05 00:03:55;;;;;;;;;;;;;;;18.45;70.62;100965.00;4206124;28;20027;-69
2023/08/05 00:06:00;;;;;;;;;;;;;;;18.43;70.44;100951.59;4206625;28;20022;-69
2023/08/05 00:08:02;;;;;;;;;;;;;;;18.45;70.47;100951.31;4205500;28;20470;-69
2023/08/05 00:10:03;;;;;;;;;;;;;;;18.43;70.29;100951.59;4206201;28;20015;-69
2023/08/05 00:12:05;;;;;;;;;;;;;;;18.45;70.69;100959.53;4206313;28;20020;-69
2023/08/05 00:14:07;;;;;;;;;;;;;;;18.46;70.81;100959.31;4204695;28;20007;-69
2023/08/05 00:16:09;;;;;;;;;;;;;;;18.46;70.47;100962.03;4205789;28;20441;-69
2023/08/05 00:18:14;;;;;;;;;;;;;;;18.47;70.47;100961.00;4206203;28;20023;-69
2023/08/05 00:20:16;;;;;;;;;;;;;;;18.47;70.38;100976.56;4205399;28;20454;-69
2023/08/05 00:22:18;;;;;;;;;;;;;;;18.47;70.25;100980.13;4205261;28;20341;-69
2023/08/05 00:24:20;;;;;;;;;;;;;;;18.48;70.22;100984.56;4206079;28;20043;-69
2023/08/05 00:26:22;;;;;;;;;;;;;;;18.49;70.26;100982.66;4206292;28;20364;-69
2023/08/05 00:28:24;;;;;;;;;;;;;;;18.46;70.12;100985.81;4205845;28;19970;-69
2023/08/05 00:30:26;;;;;;;;;;;;;;;18.46;70.30;100978.44;4185113;28;20015;-69
2023/08/05 00:32:29;;;;;;;;;;;;;;;18.46;70.25;100977.63;4205399;28;20020;-70
2023/08/05 00:34:36;;;;;;;;;;;;;;;18.42;70.23;100966.31;4188624;28;20023;-70
2023/08/05 00:36:38;;;;;;;;;;;;;;;18.43;70.53;100969.88;4207362;28;20360;-71
2023/08/05 00:38:39;;;;;;;;;;;;;;;18.41;70.16;100963.78;4206441;28;19996;-69
2023/08/05 00:40:43;;;;;;;;;;;;;;;18.41;70.56;100967.34;4206483;28;20376;-69
2023/08/05 00:42:45;;;;;;;;;;;;;;;18.40;70.32;100967.56;4206091;28;20346;-71
2023/08/05 00:44:47;;;;;;;;;;;;;;;18.37;70.48;100964.25;4187154;28;19976;-71
2023/08/05 00:46:49;;;;;;;;;;;;;;;18.37;70.55;100964.25;4204415;28;20035;-70
2023/08/05 00:48:56;;;;;;;;;;;;;;;18.35;70.47;100971.84;4204871;28;20031;-70
2023/08/05 00:50:59;;;;;;;;;;;;;;;18.35;70.51;100966.38;4204806;28;20024;-70
2023/08/05 00:53:01;;;;;;;;;;;;;;;18.36;70.72;100969.94;4205467;28;20011;-70
2023/08/05 00:55:06;;;;;;;;;;;;;;;18.35;70.62;100963.63;4186271;28;20024;-69
2023/08/05 00:57:09;;;;;;;;;;;;;;;18.36;70.59;100969.94;4205168;28;20058;-70
2023/08/05 00:59:11;;;;;;;;;;;;;;;18.36;70.54;100970.75;4187197;28;20012;-69
2023/08/05 01:01:13;;;;;;;;;;;;;;;18.38;70.37;100973.28;4203373;28;19925;-69
2023/08/05 01:03:15;;;;;;;;;;;;;;;18.39;70.43;100974.94;4186694;28;20023;-71
2023/08/05 01:05:17;;;;;;;;;;;;;;;18.39;70.29;100974.13;4204880;28;20016;-70
2023/08/05 01:07:20;;;;;;;;;;;;;;;18.40;70.47;100968.44;4204709;28;20015;-70
2023/08/05 01:09:25;;;;;;;;;;;;;;;18.42;70.25;100960.84;4186199;28;19967;-70
2023/08/05 01:11:27;;;;;;;;;;;;;;;18.43;70.02;100953.47;4203457;28;20015;-70
2023/08/05 01:13:31;;;;;;;;;;;;;;;18.42;69.95;100958.09;4205226;28;20040;-69
2023/08/05 01:15:33;;;;;;;;;;;;;;;18.43;69.93;100962.53;4203772;28;20031;-69
2023/08/05 01:17:34;;;;;;;;;;;;;;;18.45;69.78;100962.25;4204313;28;20430;-69
2023/08/05 01:19:36;;;;;;;;;;;;;;;18.45;69.81;100952.19;4204472;28;20015;-70
2023/08/05 01:21:39;;;;;;;;;;;;;;;18.47;69.79;100968.38;4205361;28;19935;-69
2023/08/05 01:23:44;;;;;;;;;;;;;;;18.47;69.88;100949.22;4202936;28;20029;-70
2023/08/05 01:25:47;;;;;;;;;;;;;;;18.48;69.66;100943.53;4203258;28;20020;-70
2023/08/05 01:27:50;;;;;;;;;;;;;;;18.49;69.42;100947.91;4204714;28;20007;-69
2023/08/05 01:29:55;;;;;;;;;;;;;;;18.49;69.75;100947.91;4204630;28;20103;-69
2023/08/05 01:31:57;;;;;;;;;;;;;;;18.50;69.47;100944.13;4204365;28;20015;-70
2023/08/05 01:34:00;;;;;;;;;;;;;;;18.50;69.54;100946.88;4204132;28;20044;-70
2023/08/05 01:36:02;;;;;;;;;;;;;;;18.52;69.44;100949.38;4204573;28;20031;-69
2023/08/05 01:38:04;;;;;;;;;;;;;;;18.53;69.59;100940.13;4205099;28;20018;-70
2023/08/05 01:40:08;;;;;;;;;;;;;;;18.53;69.31;100940.13;4185520;28;20366;-69
2023/08/05 01:42:11;;;;;;;;;;;;;;;18.52;69.34;100938.44;4185727;28;19928;-69
2023/08/05 01:44:12;;;;;;;;;;;;;;;18.52;69.28;100935.69;4200905;28;20011;-68
2023/08/05 01:46:14;;;;;;;;;;;;;;;18.52;69.29;100942.00;4203479;28;19973;-69
2023/08/05 01:48:16;;;;;;;;;;;;;;;18.52;69.24;100931.06;4202869;28;20014;-69
2023/08/05 01:50:19;;;;;;;;;;;;;;;18.53;69.25;100935.47;4203185;28;20018;-69
2023/08/05 01:52:21;;;;;;;;;;;;;;;18.53;69.18;100934.66;4204979;28;20716;-69
2023/08/05 01:54:23;;;;;;;;;;;;;;;18.53;69.10;100940.13;4203465;28;20005;-69
2023/08/05 01:56:25;;;;;;;;;;;;;;;18.54;69.09;100936.31;4186983;28;20008;-69
2023/08/05 01:58:28;;;;;;;;;;;;;;;18.53;69.13;100945.59;4202306;28;20023;-69
2023/08/05 02:00:30;;;;;;;;;;;;;;;18.53;69.19;100949.16;4185770;28;20032;-69
2023/08/05 02:02:32;;;;;;;;;;;;;;;18.53;69.16;100940.13;4203007;28;20441;-70
2023/08/05 02:04:33;;;;;;;;;;;;;;;18.52;69.16;100939.25;4185051;28;20389;-70
2023/08/05 02:06:36;;;;;;;;;;;;;;;18.52;69.15;100941.19;4186166;28;20019;-69
2023/08/05 02:08:38;;;;;;;;;;;;;;;18.51;69.09;100934.88;4185816;28;20015;-70
2023/08/05 02:10:40;;;;;;;;;;;;;;;18.51;69.33;100937.63;4185153;28;20023;-68
2023/08/05 02:12:43;;;;;;;;;;;;;;;18.51;69.08;100942.22;4203396;28;20031;-68
2023/08/05 02:14:45;;;;;;;;;;;;;;;18.51;69.27;100943.09;4202850;28;20433;-68
2023/08/05 02:16:47;;;;;;;;;;;;;;;18.51;69.08;100936.75;4185054;28;20024;-69
2023/08/05 02:18:49;;;;;;;;;;;;;;;18.50;69.10;100940.56;4203556;28;20040;-69
2023/08/05 02:20:51;;;;;;;;;;;;;;;18.47;69.05;100944.59;4201714;28;20408;-68
2023/08/05 02:22:53;;;;;;;;;;;;;;;18.46;69.14;100948.38;4185027;28;19925;-68
2023/08/05 02:24:55;;;;;;;;;;;;;;;18.46;69.14;100947.53;4185603;28;20497;-70
2023/08/05 02:26:57;;;;;;;;;;;;;;;18.45;69.30;100951.31;4186652;28;20470;-68
2023/08/05 02:28:59;;;;;;;;;;;;;;;18.42;69.41;100949.06;4203963;28;20022;-69
2023/08/05 02:31:03;;;;;;;;;;;;;;;18.41;69.29;100959.16;4203652;28;20437;-68
2023/08/05 02:33:05;;;;;;;;;;;;;;;18.39;69.62;100957.72;4186590;28;20016;-69
2023/08/05 02:35:07;;;;;;;;;;;;;;;18.36;69.48;100957.09;4203804;28;20023;-70
2023/08/05 02:37:11;;;;;;;;;;;;;;;18.36;69.54;100961.72;4185788;28;20019;-67
2023/08/05 02:39:14;;;;;;;;;;;;;;;18.34;69.58;100961.94;4203193;28;20368;-70
2023/08/05 02:41:16;;;;;;;;;;;;;;;18.33;69.68;100953.97;4184265;28;20023;-70
2023/08/05 02:43:18;;;;;;;;;;;;;;;18.31;69.83;100969.78;4203280;28;20026;-70
2023/08/05 02:45:20;;;;;;;;;;;;;;;18.29;69.71;100970.00;4185233;28;20024;-69
2023/08/05 02:47:23;;;;;;;;;;;;;;;18.28;69.79;100970.22;4203799;28;20011;-70
2023/08/05 02:49:25;;;;;;;;;;;;;;;18.25;70.24;100965.19;4203578;28;20007;-69
2023/08/05 02:51:27;;;;;;;;;;;;;;;18.23;69.94;100970.03;4203947;28;20050;-70
2023/08/05 02:53:29;;;;;;;;;;;;;;;18.21;70.34;100966.69;4167958;28;20020;-70
2023/08/05 02:55:31;;;;;;;;;;;;;;;18.20;70.34;100965.84;4168686;28;20028;-69
2023/08/05 02:57:33;;;;;;;;;;;;;;;18.18;70.25;100966.09;4184761;28;20036;-69
2023/08/05 02:59:35;;;;;;;;;;;;;;;18.17;70.47;100964.41;4184755;28;20011;-70
2023/08/05 03:01:37;;;;;;;;;;;;;;;18.18;70.67;100970.69;4201822;28;20032;-70
2023/08/05 03:03:41;;;;;;;;;;;;;;;18.17;70.86;100975.31;4203564;28;19936;-70
2023/08/05 03:05:43;;;;;;;;;;;;;;;18.18;70.61;100971.53;4202169;28;20051;-69
2023/08/05 03:07:45;;;;;;;;;;;;;;;18.18;70.62;100967.97;4184695;28;20019;-70
2023/08/05 03:09:47;;;;;;;;;;;;;;;18.16;70.79;100964.63;4185291;28;20350;-70
2023/08/05 03:11:49;;;;;;;;;;;;;;;18.17;70.74;100969.03;4169888;28;20015;-70
2023/08/05 03:13:51;;;;;;;;;;;;;;;18.17;70.66;100969.03;4202811;28;20012;-69
2023/08/05 03:15:53;;;;;;;;;;;;;;;18.17;70.78;100977.22;4190317;28;20016;-69
2023/08/05 03:17:55;;;;;;;;;;;;;;;18.17;71.02;100972.59;4190834;28;20027;-69
2023/08/05 03:19:59;;;;;;;;;;;;;;;18.18;70.88;100974.28;4190713;28;20023;-70
2023/08/05 03:22:01;;;;;;;;;;;;;;;18.18;70.83;100970.69;4207542;28;20584;-70
2023/08/05 03:24:03;;;;;;;;;;;;;;;18.17;70.81;100964.41;4189050;28;19975;-69
2023/08/05 03:26:09;;;;;;;;;;;;;;;18.18;70.90;100962.50;4190006;28;20023;-69
2023/08/05 03:28:12;;;;;;;;;;;;;;;18.17;70.81;100961.66;4190901;28;20651;-69
2023/08/05 03:30:18;;;;;;;;;;;;;;;18.18;71.01;100962.50;4208430;28;20023;-69
2023/08/05 03:32:23;;;;;;;;;;;;;;;18.17;71.03;100958.09;4190348;28;20020;-69
2023/08/05 03:34:25;;;;;;;;;;;;;;;18.16;70.93;100957.25;4191048;28;20024;-69
2023/08/05 03:36:32;;;;;;;;;;;;;;;18.15;70.95;100961.06;4191095;28;20016;-69
2023/08/05 03:38:34;;;;;;;;;;;;;;;18.15;71.12;100957.47;4207615;28;20394;-69
2023/08/05 03:40:35;;;;;;;;;;;;;;;18.15;71.01;100965.66;4190387;28;20023;-70
2023/08/05 03:42:37;;;;;;;;;;;;;;;18.14;71.14;100964.84;4190162;28;20007;-69
2023/08/05 03:44:42;;;;;;;;;;;;;;;18.14;70.93;100964.84;4208478;28;19932;-70
2023/08/05 03:46:45;;;;;;;;;;;;;;;18.14;71.09;100964.00;4173916;28;20016;-69
2023/08/05 03:48:48;;;;;;;;;;;;;;;18.13;71.03;100965.06;4207897;28;20015;-70
2023/08/05 03:50:50;;;;;;;;;;;;;;;18.12;71.32;100969.69;4174603;28;20362;-70
2023/08/05 03:52:54;;;;;;;;;;;;;;;18.12;71.12;100960.63;4208320;28;20028;-70
2023/08/05 03:54:56;;;;;;;;;;;;;;;18.10;71.11;100969.09;4190603;28;20019;-70
2023/08/05 03:56:59;;;;;;;;;;;;;;;18.09;71.36;100972.88;4207859;28;20019;-69
2023/08/05 03:59:01;;;;;;;;;;;;;;;18.08;71.10;100965.72;4189271;28;20031;-70
2023/08/05 04:01:04;;;;;;;;;;;;;;;18.07;71.25;100975.00;4189733;28;20024;-68
2023/08/05 04:03:06;;;;;;;;;;;;;;;18.06;71.35;100977.94;4208538;28;20023;-69
2023/08/05 04:05:09;;;;;;;;;;;;;;;18.03;71.32;100976.50;4207743;28;20421;-70
2023/08/05 04:07:12;;;;;;;;;;;;;;;18.01;71.73;100973.16;4189511;28;20007;-68
2023/08/05 04:09:16;;;;;;;;;;;;;;;18.01;71.52;100976.72;4209435;28;20466;-68
2023/08/05 04:11:18;;;;;;;;;;;;;;;18.00;71.65;100976.94;4207972;28;20015;-68
2023/08/05 04:13:23;;;;;;;;;;;;;;;17.98;71.58;100979.06;4208391;28;20018;-70
2023/08/05 04:15:28;;;;;;;;;;;;;;;17.96;71.84;100981.16;4190180;28;20364;-70
2023/08/05 04:17:31;;;;;;;;;;;;;;;17.97;71.68;100977.38;4173860;28;20043;-70
2023/08/05 04:19:33;;;;;;;;;;;;;;;17.97;71.73;100971.91;4189610;28;20023;-70
2023/08/05 04:21:40;;;;;;;;;;;;;;;17.97;71.69;100970.00;4173723;28;20020;-70
2023/08/05 04:23:42;;;;;;;;;;;;;;;17.98;72.11;100970.84;4208374;28;20023;-70
2023/08/05 04:25:46;;;;;;;;;;;;;;;17.98;72.03;100977.16;4206794;28;19933;-70
2023/08/05 04:27:50;;;;;;;;;;;;;;;17.98;71.90;100977.16;4205326;28;20019;-69
2023/08/05 04:29:52;;;;;;;;;;;;;;;18.00;71.96;100982.38;4205806;28;20004;-69
2023/08/05 04:31:54;;;;;;;;;;;;;;;17.99;71.87;100980.72;4205006;28;20022;-69
2023/08/05 04:33:56;;;;;;;;;;;;;;;17.99;71.77;100986.19;4205755;28;20026;-69
2023/08/05 04:35:59;;;;;;;;;;;;;;;17.99;71.92;100991.63;4205299;28;20026;-69
2023/08/05 04:38:01;;;;;;;;;;;;;;;18.00;72.01;100991.41;4186325;28;19925;-68
2023/08/05 04:40:04;;;;;;;;;;;;;;;18.01;71.85;101000.47;4205218;28;20047;-69
2023/08/05 04:42:07;;;;;;;;;;;;;;;18.01;71.89;100992.28;4206367;28;20016;-68
2023/08/05 04:44:09;;;;;;;;;;;;;;;18.01;71.91;100993.09;4205245;28;20015;-69
2023/08/05 04:46:12;;;;;;;;;;;;;;;18.00;72.03;100988.69;4204671;28;19982;-69
2023/08/05 04:48:14;;;;;;;;;;;;;;;18.00;72.17;100985.94;4205586;28;20006;-69
2023/08/05 04:50:16;;;;;;;;;;;;;;;18.01;72.03;100986.81;4205175;28;20023;-69
2023/08/05 04:52:18;;;;;;;;;;;;;;;18.00;72.13;100980.50;4205294;28;20027;-69
2023/08/05 04:54:19;;;;;;;;;;;;;;;18.02;72.23;100983.00;4205547;28;20011;-69
2023/08/05 04:56:24;;;;;;;;;;;;;;;18.01;72.25;100979.44;4205232;28;20027;-69
2023/08/05 04:58:27;;;;;;;;;;;;;;;18.02;72.27;100983.00;4204921;28;20019;-68
2023/08/05 05:00:29;;;;;;;;;;;;;;;18.02;72.32;100983.00;4204666;28;20713;-68
2023/08/05 05:02:31;;;;;;;;;;;;;;;18.03;72.49;100981.13;4205100;28;20022;-68
2023/08/05 05:04:33;;;;;;;;;;;;;;;18.04;72.20;100980.03;4205285;28;20027;-69
2023/08/05 05:06:35;;;;;;;;;;;;;;;18.05;72.34;100984.47;4204183;28;19924;-69
2023/08/05 05:08:36;;;;;;;;;;;;;;;18.05;72.34;100981.72;4171258;28;20004;-68
2023/08/05 05:10:38;;;;;;;;;;;;;;;18.05;72.26;100988.03;4204986;28;19928;-68
2023/08/05 05:12:40;;;;;;;;;;;;;;;18.05;72.46;100988.03;4187142;28;20036;-68
2023/08/05 05:14:45;;;;;;;;;;;;;;;18.06;72.39;100997.91;4204382;28;20346;-69
2023/08/05 05:16:47;;;;;;;;;;;;;;;18.07;72.71;101006.94;4204510;28;20023;-69
2023/08/05 05:18:49;;;;;;;;;;;;;;;18.08;72.34;101005.88;4204352;28;20014;-68
2023/08/05 05:20:51;;;;;;;;;;;;;;;18.09;72.48;101004.84;4205134;28;20513;-69
2023/08/05 05:22:53;;;;;;;;;;;;;;;18.09;72.68;101004.84;4204294;28;20040;-69
2023/08/05 05:24:54;;;;;;;;;;;;;;;18.09;72.68;101013.03;4205064;28;20018;-69
2023/08/05 05:26:57;;;;;;;;;;;;;;;18.08;72.68;101014.09;4204282;28;19924;-69
2023/08/05 05:28:59;;;;;;;;;;;;;;;18.08;72.67;101014.09;4203805;28;20281;-69
2023/08/05 05:31:03;;;;;;;;;;;;;;;18.11;72.87;101016.38;4202153;28;20015;-70
2023/08/05 05:33:05;;;;;;;;;;;;;;;18.12;72.69;101020.78;4203746;28;20050;-71
2023/08/05 05:35:08;;;;;;;;;;;;;;;18.13;72.79;101020.56;4202165;28;20055;-71
2023/08/05 05:37:10;;;;;;;;;;;;;;;18.15;72.50;101014.88;4203834;28;20015;-71
2023/08/05 05:39:12;;;;;;;;;;;;;;;18.16;72.50;101014.66;4203346;28;20380;-70
2023/08/05 05:41:16;;;;;;;;;;;;;;;18.18;72.53;101017.16;4203866;28;20015;-70
2023/08/05 05:43:19;;;;;;;;;;;;;;;18.21;72.59;101013.16;4204067;28;20051;-71
2023/08/05 05:45:21;;;;;;;;;;;;;;;18.21;72.67;101013.97;4203620;28;20023;-70
2023/08/05 05:47:24;;;;;;;;;;;;;;;18.24;72.61;101007.25;4201821;28;19946;-70
2023/08/05 05:49:26;;;;;;;;;;;;;;;18.25;72.59;101000.72;4203213;28;20418;-71
2023/08/05 05:51:28;;;;;;;;;;;;;;;18.26;72.66;101000.50;4203675;28;20054;-72
2023/08/05 05:53:30;;;;;;;;;;;;;;;18.28;72.35;100997.56;4204434;28;20473;-71
2023/08/05 05:55:32;;;;;;;;;;;;;;;18.30;72.48;100996.25;4202984;28;20023;-70
2023/08/05 05:57:34;;;;;;;;;;;;;;;18.31;72.54;100995.19;4202430;28;20397;-70
2023/08/05 05:59:36;;;;;;;;;;;;;;;18.33;72.45;100994.97;4203971;28;20055;-71
2023/08/05 06:01:38;;;;;;;;;;;;;;;18.34;72.51;100991.19;4203532;28;20015;-70
2023/08/05 06:03:42;;;;;;;;;;;;;;;18.35;72.47;100988.25;4201526;28;20547;-70
2023/08/05 06:05:44;;;;;;;;;;;;;;;18.37;72.51;100991.59;4203320;28;20035;-70
2023/08/05 06:07:46;;;;;;;;;;;;;;;18.40;72.44;100979.38;4203508;28;20031;-70
2023/08/05 06:09:48;;;;;;;;;;;;;;;18.42;72.48;100987.34;4203373;28;20043;-70
2023/08/05 06:11:50;;;;;;;;;;;;;;;18.44;72.14;100990.69;4202753;28;20015;-71
2023/08/05 06:13:52;;;;;;;;;;;;;;;18.46;71.85;100992.13;4203560;28;20031;-70
2023/08/05 06:15:54;;;;;;;;;;;;;;;18.49;71.84;100993.59;4202468;28;20023;-71
2023/08/05 06:17:55;;;;;;;;;;;;;;;18.51;71.92;100996.94;4203037;28;20040;-71
2023/08/05 06:19:58;;;;;;;;;;;;;;;18.54;71.63;101001.94;4202168;28;20384;-70
2023/08/05 06:22:00;;;;;;;;;;;;;;;18.55;71.67;101001.72;4203055;28;20012;-70
2023/08/05 06:24:02;;;;;;;;;;;;;;;18.57;71.47;100998.78;4204187;28;20023;-70
2023/08/05 06:26:04;;;;;;;;;;;;;;;18.59;71.41;100993.94;4202884;28;20030;-70
2023/08/05 06:28:05;;;;;;;;;;;;;;;18.61;71.33;100996.44;4203871;28;20342;-71
2023/08/05 06:30:09;;;;;;;;;;;;;;;18.63;71.29;100995.13;4202640;28;20011;-69
2023/08/05 06:32:12;;;;;;;;;;;;;;;18.64;70.97;100999.56;4202713;28;20011;-69
2023/08/05 06:34:14;;;;;;;;;;;;;;;18.67;71.10;101001.84;4202209;28;20446;-70
2023/08/05 06:36:17;;;;;;;;;;;;;;;18.70;71.29;101000.56;4202271;28;20377;-71
2023/08/05 06:38:19;;;;;;;;;;;;;;;18.72;70.93;100998.44;4202999;28;20015;-70
2023/08/05 06:40:21;;;;;;;;;;;;;;;18.75;70.67;101003.47;4201979;28;20014;-70
2023/08/05 06:42:26;;;;;;;;;;;;;;;18.77;70.69;101006.81;4202400;28;20449;-70
2023/08/05 06:44:28;;;;;;;;;;;;;;;18.79;70.79;101009.31;4203156;28;20438;-69
2023/08/05 06:46:30;;;;;;;;;;;;;;;18.81;70.64;101005.28;4202477;28;20454;-68
2023/08/05 06:48:32;;;;;;;;;;;;;;;18.83;70.79;101007.81;4201637;28;19925;-69
2023/08/05 06:50:34;;;;;;;;;;;;;;;18.84;70.54;101006.72;4200987;28;20030;-69
2023/08/05 06:52:40;;;;;;;;;;;;;;;18.87;70.54;101009.03;4202883;28;20019;-70
2023/08/05 06:54:43;;;;;;;;;;;;;;;18.89;70.41;101010.50;4202701;28;20430;-68
2023/08/05 06:56:44;;;;;;;;;;;;;;;18.92;70.25;101009.22;4202603;28;20339;-69
2023/08/05 06:58:47;;;;;;;;;;;;;;;18.93;70.38;100999.94;4202167;28;20024;-68
2023/08/05 07:00:52;;;;;;;;;;;;;;;18.96;69.99;100999.47;4202749;28;20023;-69
2023/08/05 07:02:54;;;;;;;;;;;;;;;18.98;70.25;100994.63;4201240;28;20031;-70
2023/08/05 07:04:55;;;;;;;;;;;;;;;18.99;70.17;100993.56;4202286;28;20532;-69
2023/08/05 07:06:57;;;;;;;;;;;;;;;19.00;70.08;100987.03;4201661;28;19935;-68
2023/08/05 07:09:03;;;;;;;;;;;;;;;19.02;70.18;100984.06;4201993;28;20442;-68
2023/08/05 07:11:05;;;;;;;;;;;;;;;19.03;70.06;100986.56;4201567;28;20460;-68
2023/08/05 07:13:07;;;;;;;;;;;;;;;19.06;70.06;100990.78;4201532;28;20020;-69
2023/08/05 07:15:09;;;;;;;;;;;;;;;19.08;69.91;100994.09;4200228;28;20028;-70
2023/08/05 07:17:11;;;;;;;;;;;;;;;19.12;69.86;100991.75;4202803;28;20007;-69
2023/08/05 07:19:13;;;;;;;;;;;;;;;19.13;69.67;100986.03;4201612;28;20027;-69
2023/08/05 07:21:16;;;;;;;;;;;;;;;19.16;69.74;100984.75;4201132;28;20447;-68
2023/08/05 07:23:18;;;;;;;;;;;;;;;19.17;69.53;100986.41;4202024;28;20027;-68
2023/08/05 07:25:21;;;;;;;;;;;;;;;19.19;69.72;100998.81;4202872;28;20027;-68
2023/08/05 07:27:23;;;;;;;;;;;;;;;19.20;69.80;100996.91;4202330;28;20018;-68
2023/08/05 07:29:25;;;;;;;;;;;;;;;19.21;69.65;101006.81;4202025;28;19982;-69
2023/08/05 07:31:27;;;;;;;;;;;;;;;19.23;69.75;101004.66;4202496;28;20019;-69
2023/08/05 07:33:30;;;;;;;;;;;;;;;19.24;69.69;100998.97;4202446;28;20023;-68
2023/08/05 07:35:32;;;;;;;;;;;;;;;19.25;69.66;101005.28;4202530;28;20043;-68
2023/08/05 07:37:34;;;;;;;;;;;;;;;19.27;69.84;101003.16;4201955;28;20359;-67
2023/08/05 07:39:37;;;;;;;;;;;;;;;19.28;69.92;101002.09;4202245;28;20008;-72
2023/08/05 07:41:41;;;;;;;;;;;;;;;19.30;69.76;101010.91;4202198;28;20015;-69
2023/08/05 07:43:43;;;;;;;;;;;;;;;19.31;69.72;101001.66;4202317;28;20408;-68
2023/08/05 07:45:45;;;;;;;;;;;;;;;19.33;69.65;100995.94;4201702;28;20011;-68
2023/08/05 07:47:49;;;;;;;;;;;;;;;19.34;69.68;100992.13;4202189;28;20030;-68
2023/08/05 07:49:50;;;;;;;;;;;;;;;19.35;69.64;100983.66;4202381;28;20007;-67
2023/08/05 07:51:53;;;;;;;;;;;;;;;19.37;69.83;100986.19;4200623;28;19935;-68
2023/08/05 07:53:57;;;;;;;;;;;;;;;19.37;69.58;100987.03;4201739;28;20042;-69
2023/08/05 07:55:59;;;;;;;;;;;;;;;19.38;69.69;100991.44;4202757;28;19995;-69
2023/08/05 07:58:05;;;;;;;;;;;;;;;19.38;69.81;100979.66;4202287;28;20470;-70
2023/08/05 08:00:09;;;;;;;;;;;;;;;19.40;69.67;100972.03;4182231;28;20756;-70
2023/08/05 08:02:13;;;;;;;;;;;;;;;19.40;69.90;100972.88;4205037;28;20019;-68
2023/08/05 08:04:15;;;;;;;;;;;;;;;19.41;69.92;100971.78;4204873;28;20349;-68
2023/08/05 08:06:18;;;;;;;;;;;;;;;19.43;69.70;100972.38;4205054;28;20023;-68
2023/08/05 08:08:20;;;;;;;;;;;;;;;19.43;69.56;100972.38;4204782;28;20053;-69
2023/08/05 08:10:25;;;;;;;;;;;;;;;19.45;69.88;100970.28;4205382;28;19942;-69
2023/08/05 08:12:27;;;;;;;;;;;;;;;19.47;69.79;100972.78;4204370;28;20031;-69
2023/08/05 08:14:31;;;;;;;;;;;;;;;19.48;69.92;100963.47;4205383;28;20026;-68
2023/08/05 08:16:33;;;;;;;;;;;;;;;19.49;69.77;100965.16;4204147;28;19933;-68
2023/08/05 08:18:35;;;;;;;;;;;;;;;19.50;69.91;100968.72;4204407;28;20469;-68
2023/08/05 08:20:37;;;;;;;;;;;;;;;19.51;69.67;100976.72;4203330;28;20019;-69
2023/08/05 08:22:39;;;;;;;;;;;;;;;19.54;69.80;100961.72;4203585;28;20020;-70
2023/08/05 08:24:41;;;;;;;;;;;;;;;19.56;69.69;100965.94;4203651;28;20031;-69
2023/08/05 08:26:43;;;;;;;;;;;;;;;19.58;69.71;100971.19;4202788;28;20023;-70
2023/08/05 08:28:45;;;;;;;;;;;;;;;19.59;69.49;100976.44;4204166;28;20338;-69
2023/08/05 08:30:55;;;;;;;;;;;;;;;19.61;69.22;100977.03;4184628;28;20382;-68
2023/08/05 08:32:58;;;;;;;;;;;;;;;19.64;69.09;100970.25;4204071;28;20011;-70
2023/08/05 08:35:00;;;;;;;;;;;;;;;19.66;69.15;100973.59;4202410;28;19924;-68
2023/08/05 08:37:02;;;;;;;;;;;;;;;19.68;68.95;100979.66;4203561;28;20026;-68
2023/08/05 08:39:04;;;;;;;;;;;;;;;19.70;68.98;100983.03;4204810;28;20023;-68
2023/08/05 08:41:07;;;;;;;;;;;;;;;19.73;68.65;100979.81;4204493;28;20011;-69
2023/08/05 08:43:09;;;;;;;;;;;;;;;19.75;68.78;100983.16;4204612;28;20019;-70
2023/08/05 08:45:12;;;;;;;;;;;;;;;19.79;68.65;100980.81;4204738;28;20023;-68
2023/08/05 08:47:16;;;;;;;;;;;;;;;19.82;68.41;100979.53;4204633;28;20464;-67
2023/08/05 08:49:18;;;;;;;;;;;;;;;19.85;68.25;100981.78;4203943;28;20019;-67
2023/08/05 08:51:21;;;;;;;;;;;;;;;19.88;68.21;100986.81;4203943;28;20020;-66
2023/08/05 08:53:24;;;;;;;;;;;;;;;19.89;68.18;100978.34;4195974;28;20343;-66
2023/08/05 08:55:26;;;;;;;;;;;;;;;19.92;68.09;100979.78;4203850;28;20030;-66
2023/08/05 08:57:28;;;;;;;;;;;;;;;19.93;67.85;100971.31;4204323;28;20015;-66
2023/08/05 08:59:30;;;;;;;;;;;;;;;19.96;67.79;100968.13;4200945;28;20015;-66
2023/08/05 09:01:35;;;;;;;;;;;;;;;19.98;67.78;100960.50;4204593;28;20039;-67
2023/08/05 09:03:42;;;;;;;;;;;;;;;20.01;67.47;100958.34;4182434;28;19934;-67
2023/08/05 09:05:46;;;;;;;;;;;;;;;20.02;67.50;100960.88;4199372;28;20028;-67
2023/08/05 09:07:48;;;;;;;;;;;;;;;20.05;67.57;100970.53;4201814;28;20019;-67
2023/08/05 09:09:50;;;;;;;;;;;;;;;20.06;67.29;100963.97;4204232;28;20442;-67
2023/08/05 09:11:52;;;;;;;;;;;;;;;20.08;67.34;100970.06;4204042;28;20363;-68
2023/08/05 09:13:54;;;;;;;;;;;;;;;20.09;67.22;100967.06;4205590;28;20027;-67
2023/08/05 09:15:57;;;;;;;;;;;;;;;20.11;67.05;100969.56;4183876;28;20030;-66
2023/08/05 09:17:58;;;;;;;;;;;;;;;20.13;67.03;100976.50;4204896;28;20039;-66
2023/08/05 09:20:05;;;;;;;;;;;;;;;20.14;67.21;100969.09;4205417;28;20023;-66
2023/08/05 09:22:06;;;;;;;;;;;;;;;20.14;66.88;100964.47;4204190;28;20015;-66
2023/08/05 09:24:08;;;;;;;;;;;;;;;20.17;66.99;100969.50;4203954;28;20023;-66
2023/08/05 09:26:13;;;;;;;;;;;;;;;20.19;66.85;100968.41;4204131;28;20007;-66
2023/08/05 09:28:15;;;;;;;;;;;;;;;20.21;66.97;100966.28;4204461;28;20059;-67
2023/08/05 09:30:17;;;;;;;;;;;;;;;20.22;66.84;100954.22;4204246;28;20036;-67
2023/08/05 09:32:19;;;;;;;;;;;;;;;20.23;66.59;100961.38;4203782;28;20314;-67
2023/08/05 09:34:20;;;;;;;;;;;;;;;20.25;66.69;100957.34;4204213;28;20015;-67
2023/08/05 09:36:24;;;;;;;;;;;;;;;20.26;66.56;100944.47;4203693;28;19946;-66
2023/08/05 09:38:27;;;;;;;;;;;;;;;20.28;66.63;100956.88;4186700;28;19972;-68
2023/08/05 09:40:32;;;;;;;;;;;;;;;20.29;66.34;100958.53;4202507;28;20036;-67
2023/08/05 09:42:34;;;;;;;;;;;;;;;20.31;66.39;100956.41;4201794;28;20015;-68
2023/08/05 09:44:37;;;;;;;;;;;;;;;20.33;66.18;100950.69;4201274;28;20022;-68
2023/08/05 09:46:41;;;;;;;;;;;;;;;20.34;66.13;100950.44;4184534;28;20369;-68
2023/08/05 09:48:43;;;;;;;;;;;;;;;20.36;66.02;100944.72;4200942;28;20011;-68
2023/08/05 09:50:45;;;;;;;;;;;;;;;20.37;66.00;100942.81;4201134;28;20034;-67
2023/08/05 09:52:51;;;;;;;;;;;;;;;20.39;66.13;100938.75;4203273;28;20525;-68
2023/08/05 09:54:54;;;;;;;;;;;;;;;20.41;65.88;100942.09;4204373;28;20022;-68
2023/08/05 09:56:57;;;;;;;;;;;;;;;20.43;65.82;100931.69;4202842;28;19925;-67
2023/08/05 09:58:59;;;;;;;;;;;;;;;20.45;65.91;100931.47;4203141;28;20016;-67
2023/08/05 10:01:02;;;;;;;;;;;;;;;20.46;65.84;100927.66;4203041;28;20090;-67
2023/08/05 10:03:06;;;;;;;;;;;;;;;20.47;65.73;100935.66;4203747;28;19984;-66
2023/08/05 10:05:09;;;;;;;;;;;;;;;20.48;65.54;100929.06;4184138;28;20024;-67
2023/08/05 10:07:11;;;;;;;;;;;;;;;20.48;65.77;100923.59;4202798;28;20016;-68
2023/08/05 10:09:14;;;;;;;;;;;;;;;20.50;65.51;100926.09;4184781;28;20407;-69
2023/08/05 10:11:16;;;;;;;;;;;;;;;20.52;65.35;100923.97;4203285;28;20011;-68
2023/08/05 10:13:20;;;;;;;;;;;;;;;20.52;65.59;100922.03;4202171;28;19924;-67
2023/08/05 10:15:24;;;;;;;;;;;;;;;20.54;65.44;100919.06;4202658;28;20015;-68
2023/08/05 10:17:25;;;;;;;;;;;;;;;20.55;65.29;100923.50;4202601;28;20019;-68
2023/08/05 10:19:31;;;;;;;;;;;;;;;20.55;65.21;100926.22;4203292;28;20058;-67
2023/08/05 10:21:36;;;;;;;;;;;;;;;20.57;65.25;100926.00;4203773;28;20028;-66
2023/08/05 10:23:37;;;;;;;;;;;;;;;20.57;65.35;100926.81;4202555;28;20049;-66
2023/08/05 10:25:44;;;;;;;;;;;;;;;20.58;65.32;100941.38;4203030;28;19966;-67
2023/08/05 10:27:45;;;;;;;;;;;;;;;20.59;65.14;100943.03;4203008;28;20015;-67
2023/08/05 10:29:53;;;;;;;;;;;;;;;20.60;65.12;100925.50;4200850;28;20449;-67